Fallbrook (230, 1234, 239, RB1) Station Data

Red Flag Warning: No
Fire Weather Zone: 250
SDGE Region: North East
Lat/Lon: 33.355/-117.167

Observations

Time Wind Speed/Gust Temp(F) RH Fuel Moist Fuel Temp(F) Dewpt(F) Tmax(F) Tmin(F) Accum Precip 10-min Precip SL Press(mb)
3/29 8:00am 19 5 G 7 58° 39% - - 34° 60.4° 51.6° - - -
3/29 7:50am 21 4 G 7 58° 39% - - 33° 60.4° 51.6° - - -
3/29 7:40am 348 2 G 3 57° 40% - - 33° 60.4° 51.6° - - -
3/29 7:30am 255 2 G 3 58° 38% - - 32° 60.4° 51.6° - - -
3/29 7:20am 36 2 G 3 59° 35% - - 31° 60.4° 51.6° - - -
3/29 7:10am 0 2 G 6 59° 33% - - 30° 60.4° 51.6° - - -
3/29 7:00am 15 4 G 6 58° 35% - - 31° 60.3° 51.6° - - -
3/29 6:50am 11 4 G 7 58° 36% - - 31° 60.3° 51.6° - - -
3/29 6:40am 23 7 G 10 58° 36% - - 31° 60.3° 51.6° - - -
3/29 6:30am 21 6 G 10 58° 36% - - 31° 60.3° 51.6° - - -
3/29 6:20am 27 7 G 12 57° 38% - - 32° 60.3° 51.6° - - -
3/29 6:10am 35 5 G 9 57° 40% - - 33° 60.3° 51.6° - - -
3/29 6:00am 8 5 G 9 58° 37% - - 32° 60.3° 51.6° - - -
3/29 5:50am 15 2 G 4 59° 35% - - 31° 60.3° 51.6° - - -
3/29 5:40am 357 1 G 2 58° 36% - - 31° 60.3° 51.6° - - -
3/29 5:30am 63 1 G 5 58° 37% - - 32° 60.3° 51.6° - - -
3/29 5:20am 70 2 G 6 58° 37% - - 32° 60.3° 51.6° - - -
3/29 5:10am 42 5 G 9 58° 38% - - 33° 60.3° 51.6° - - -
3/29 5:00am 43 5 G 10 58° 37% - - 33° 60.3° 51.6° - - -
3/29 4:50am 81 5 G 8 56° 41% - - 33° 60.3° 51.6° - - -
3/29 4:40am 90 7 G 9 55° 44% - - 34° 60.3° 51.6° - - -
3/29 4:30am 90 6 G 8 54° 46% - - 34° 60.3° 51.6° - - -
3/29 4:20am 96 7 G 10 53° 50% - - 35° 60.3° 51.6° - - -
3/29 4:10am 98 7 G 12 54° 48% - - 35° 60.3° 53.5° - - -
3/29 4:00am 89 6 G 9 55° 47% - - 35° 60.3° 54° - - -
3/29 3:50am 92 6 G 10 56° 46% - - 36° 60.3° 54.5° - - -
3/29 3:40am 69 5 G 13 58° 44% - - 36° 60.3° 54.5° - - -
3/29 3:30am 75 4 G 5 56° 50% - - 38° 60.3° 54.5° - - -
3/29 3:20am 30 6 G 11 57° 50% - - 38° 60.3° 54.5° - - -
3/29 3:10am 15 8 G 12 57° 49% - - 38° 60.3° 54.5° - - -
3/29 3:00am 23 10 G 12 58° 47% - - 37° 60.3° 54.5° - - -
3/29 2:50am 31 7 G 11 58° 45% - - 37° 60.3° 54.5° - - -
3/29 2:40am 60 5 G 6 57° 48% - - 37° 60.3° 54.5° - - -
3/29 2:30am 85 3 G 6 56° 50% - - 38° 60.3° 54.5° - - -
3/29 2:20am 90 5 G 8 56° 51% - - 38° 60.3° 54.5° - - -
3/29 2:10am 43 6 G 9 56° 51% - - 38° 60.3° 54.5° - - -
3/29 2:00am 14 6 G 10 56° 50% - - 37° 60.3° 54.9° - - -
3/29 1:50am 356 6 G 10 56° 49% - - 37° 60.3° 54.9° - - -
3/29 1:40am 349 5 G 6 56° 49% - - 37° 60.3° 54.9° - - -
3/29 1:30am 340 5 G 7 56° 51% - - 38° 60.3° 54.9° - - -
3/29 1:20am 45 4 G 4 58° 50% - - 39° 60.3° 55.2° - - -
3/29 1:10am 73 5 G 6 58° 48% - - 39° 59.7° 55.2° - - -
3/29 1:00am 79 6 G 7 58° 50% - - 39° 59.5° 55.2° - - -
3/29 12:50am 88 4 G 6 56° 54% - - 40° 59.5° 55.2° - - -
3/29 12:40am 55 3 G 5 57° 52% - - 40° 59.5° 55.3° - - -
3/29 12:30am 20 4 G 5 58° 51% - - 40° 59.5° 56.2° - - -
3/29 12:20am 12 4 G 4 57° 52% - - 40° 58.7° 56.2° - - -
3/29 12:10am 16 4 G 5 58° 51% - - 40° 58.7° 56.9° - - -
3/29 12:00am 40 5 G 5 58° 52% - - 40° 72° 46.4° - - -
3/28 11:50pm 31 4 G 4 58° 51% - - 40° 72° 46.4° - - -
3/28 11:40pm 39 4 G 5 58° 58% - - 43° 72° 46.4° - - -
3/28 11:30pm 41 4 G 5 58° 58% - - 43° 72° 46.4° - - -
3/28 11:20pm 38 2 G 3 58° 57% - - 43° 72° 46.4° - - -
3/28 11:10pm 20 2 G 3 58° 58% - - 43° 72° 46.4° - - -
3/28 11:00pm 10 1 G 2 58° 58% - - 43° 72° 46.4° - - -
3/28 10:50pm 45 2 G 3 58° 60% - - 44° 72° 46.4° - - -
3/28 10:40pm 340 1 G 2 58° 62% - - 45° 72° 46.4° - - -
3/28 10:30pm 353 1 G 1 58° 62% - - 45° 72° 46.4° - - -
3/28 10:20pm 347 2 G 2 58° 65% - - 46° 72° 46.4° - - -
3/28 10:10pm 353 2 G 3 58° 63% - - 45° 72° 46.4° - - -
3/28 10:00pm 342 2 G 3 58° 62% - - 45° 72° 46.4° - - -
3/28 9:50pm 341 2 G 3 58° 62% - - 45° 72° 46.4° - - -
3/28 9:40pm 2 3 G 4 58° 61% - - 45° 72° 46.4° - - -
3/28 9:30pm 14 2 G 4 58° 59% - - 44° 72° 46.4° - - -
3/28 9:20pm 272 1 G 2 58° 61% - - 45° 72° 46.4° - - -
3/28 9:10pm 215 2 G 3 58° 63% - - 46° 72° 46.4° - - -
3/28 9:00pm 205 2 G 4 59° 63% - - 46° 72° 46.4° - - -
3/28 8:50pm 232 1 G 4 59° 64% - - 47° 72° 46.4° - - -
3/28 8:40pm 214 3 G 5 59° 63% - - 46° 72° 46.4° - - -
3/28 8:30pm 219 4 G 6 59° 63% - - 46° 72° 46.4° - - -
3/28 8:20pm 239 6 G 9 59° 60% - - 45° 72° 46.4° - - -
3/28 8:10pm 234 8 G 10 59° 57% - - 44° 72° 46.4° - - -
3/28 8:00pm 235 7 G 11 60° 52% - - 42° 72° 46.4° - - -
3/28 7:50pm 221 6 G 9 61° 46% - - 40° 72° 46.4° - - -
3/28 7:40pm 201 6 G 8 62° 43% - - 39° 72° 46.4° - - -
3/28 7:30pm 234 4 G 8 62° 42% - - 39° 72° 46.4° - - -
3/28 7:20pm 217 6 G 11 62° 41% - - 39° 72° 46.4° - - -
3/28 7:10pm 225 6 G 10 63° 41% - - 39° 72° 46.4° - - -
3/28 7:00pm 213 6 G 9 63° 40% - - 39° 72° 46.4° - - -
3/28 6:50pm 203 7 G 9 64° 40% - - 39° 72° 46.4° - - -
3/28 6:40pm 190 7 G 10 64° 40% - - 39° 72° 46.4° - - -
3/28 6:30pm 178 7 G 11 65° 41% - - 41° 72° 46.4° - - -
3/28 6:20pm 170 5 G 9 66° 42% - - 42° 72° 46.4° - - -
3/28 6:10pm 156 4 G 7 66° 43% - - 43° 72° 46.4° - - -
3/28 6:00pm 179 5 G 8 66° 42% - - 42° 72° 46.4° - - -
3/28 5:50pm 192 5 G 7 66° 42% - - 42° 72° 46.4° - - -
3/28 5:40pm 215 6 G 10 66° 42% - - 42° 72° 46.4° - - -
3/28 5:30pm 196 8 G 12 66° 42% - - 42° 72° 46.4° - - -
3/28 5:20pm 203 5 G 9 67° 43% - - 43° 72° 46.4° - - -
3/28 5:10pm 215 6 G 12 67° 44% - - 44° 72° 46.4° - - -
3/28 5:00pm 211 8 G 14 66° 44% - - 44° 72° 46.4° - - -
3/28 4:50pm 224 7 G 11 67° 46% - - 45° 72° 46.4° - - -
3/28 4:40pm 224 8 G 13 67° 47% - - 46° 72° 46.4° - - -
3/28 4:30pm 230 9 G 16 67° 44% - - 45° 72° 46.4° - - -
3/28 4:20pm 220 9 G 16 67° 43% - - 44° 72° 46.4° - - -
3/28 4:10pm 230 9 G 15 68° 42% - - 44° 72° 46.4° - - -
3/28 4:00pm 218 10 G 18 67° 42% - - 44° 72° 46.4° - - -
3/28 3:50pm 203 11 G 18 69° 40% - - 43° 72° 46.4° - - -
3/28 3:40pm 225 9 G 17 69° 39% - - 43° 72° 46.4° - - -
3/28 3:30pm 232 10 G 17 69° 40% - - 44° 72° 46.4° - - -
3/28 3:20pm 226 11 G 18 69° 42% - - 45° 72° 46.4° - - -
3/28 3:10pm 233 11 G 18 69° 43% - - 46° 72° 46.4° - - -
3/28 3:00pm 236 12 G 17 69° 43% - - 46° 72° 46.4° - - -
3/28 2:50pm 236 11 G 17 70° 43% - - 46° 72° 46.4° - - -
3/28 2:40pm 215 12 G 19 70° 45% - - 48° 72° 46.4° - - -
3/28 2:30pm 227 10 G 17 70° 47% - - 49° 72° 46.4° - - -
3/28 2:20pm 228 13 G 22 70° 46% - - 48° 72° 46.4° - - -
3/28 2:10pm 223 9 G 17 71° 42% - - 47° 72° 46.4° - - -
3/28 2:00pm 228 8 G 15 71° 42% - - 47° 72° 46.4° - - -
3/28 1:50pm 239 8 G 15 70° 42% - - 46° 72° 46.4° - - -
3/28 1:40pm 243 10 G 16 70° 40% - - 44° 72° 46.4° - - -
3/28 1:30pm 247 5 G 11 71° 22% - - 30° 72° 46.4° - - -
3/28 1:20pm 282 6 G 13 71° 26% - - 34° 72° 46.4° - - -
3/28 1:10pm 257 5 G 12 70° 30% - - 37° 72° 46.4° - - -
3/28 1:00pm 257 7 G 12 70° 26% - - 33° 72° 46.4° - - -
3/28 12:50pm 271 5 G 9 71° 20% - - 27° 72° 46.4° - - -
3/28 12:40pm 358 4 G 9 71° 20% - - 28° 72° 46.4° - - -
3/28 12:30pm 351 4 G 7 70° 21% - - 29° 71.4° 46.4° - - -
3/28 12:20pm 22 5 G 10 70° 22% - - 29° 71.3° 46.4° - - -
3/28 12:10pm 324 5 G 12 69° 21% - - 27° 71.3° 46.4° - - -
3/28 12:00pm 2 4 G 9 70° 23% - - 30° 71.3° 46.4° - - -
3/28 11:50am 346 3 G 7 70° 24% - - 31° 71° 46.4° - - -
3/28 11:40am 19 5 G 8 69° 24% - - 31° 70.3° 46.4° - - -
3/28 11:30am 45 7 G 12 69° 24% - - 31° 70.3° 46.4° - - -
3/28 11:20am 41 8 G 12 68° 25% - - 31° 69.5° 46.4° - - -
3/28 11:10am 44 9 G 13 68° 26% - - 32° 69.5° 46.4° - - -
3/28 11:00am 53 10 G 15 69° 26% - - 33° 69.3° 46.4° - - -
3/28 10:50am 46 10 G 16 67° 28% - - 33° 68.6° 46.4° - - -
3/28 10:40am 27 10 G 16 66° 30% - - 34° 67.2° 46.4° - - -
3/28 10:30am 16 8 G 15 65° 31% - - 34° 65.8° 46.4° - - -
3/28 10:20am 35 7 G 18 64° 38% - - 38° 65° 46.4° - - -
3/28 10:10am 28 7 G 13 63° 39% - - 38° 64.1° 46.4° - - -
3/28 10:00am 30 7 G 13 62° 42% - - 39° 62.7° 46.4° - - -
3/28 9:50am 24 6 G 10 61° 43% - - 39° 62.3° 46.4° - - -
3/28 9:40am 325 2 G 4 58° 53% - - 41° 60.7° 46.4° - - -
3/28 9:30am 206 2 G 4 57° 59% - - 43° 58.9° 46.4° - - -
3/28 9:20am 58 4 G 8 58° 57% - - 42° 58.7° 46.4° - - -
3/28 9:10am 15 4 G 7 57° 60% - - 43° 57.5° 46.4° - - -
3/28 9:00am 348 6 G 12 56° 57% - - 41° 57° 46.4° - - -
3/28 8:50am 6 9 G 16 56° 55% - - 40° 56.5° 46.4° - - -
3/28 8:40am 352 7 G 12 55° 56% - - 40° 56.4° 46.4° - - -
3/28 8:30am 5 6 G 9 54° 57% - - 39° 54.7° 46.4° - - -
3/28 8:20am 22 7 G 9 54° 58% - - 39° 54.4° 46.4° - - -
3/28 8:10am 38 5 G 9 53° 65% - - 41° 54° 46.4° - - -
3/28 8:00am 50 3 G 7 51° 71% - - 42° 53.8° 46.4° - - -
3/28 7:50am 23 7 G 10 51° 63% - - 39° 53.8° 46.4° - - -
3/28 7:40am 4 7 G 11 50° 68% - - 40° 53.8° 46.4° - - -
3/28 7:30am 8 5 G 7 50° 72% - - 42° 53.8° 46.4° - - -
3/28 7:20am 16 3 G 5 51° 71% - - 42° 53.8° 46.4° - - -
3/28 7:10am 53 5 G 7 50° 75% - - 42° 53.8° 46.4° - - -
3/28 7:00am 74 5 G 7 49° 77% - - 42° 53.8° 46.4° - - -
3/28 6:50am 97 3 G 5 50° 74% - - 42° 53.8° 46.4° - - -
3/28 6:40am 323 2 G 3 50° 71% - - 41° 53.8° 46.4° - - -
3/28 6:30am 198 4 G 5 49° 80% - - 43° 53.8° 46.4° - - -
3/28 6:20am 250 2 G 5 50° 77% - - 43° 53.8° 46.4° - - -
3/28 6:10am 237 6 G 12 48° 88% - - 44° 53.8° 46.4° - - -
3/28 6:00am 247 8 G 13 49° 79% - - 43° 53.8° 46.7° - - -